Time;durP1;ratioP1;P1;durP2;ratioP2;P2;SDS_P1;SDS_P2;PMS_P1;PMS_P2;Temp;Humidity;BMP_temperature;BMP_pressure;BME280_temperature;BME280_humidity;BME280_pressure;Samples;Min_cycle;Max_cycle;Signal;HPM_P1;HPM_P2
2021/08/06 00:00:10;;;;;;;2.63;1.53;;;15.50;99.90;;;;;;5031556;28;20488;-69
2021/08/06 00:02:38;;;;;;;3.13;1.80;;;15.50;99.90;;;;;;4997410;28;20455;-69
2021/08/06 00:05:05;;;;;;;4.10;1.87;;;15.40;99.90;;;;;;5032165;28;20451;-68
2021/08/06 00:07:32;;;;;;;3.57;1.80;;;15.40;99.90;;;;;;5032259;28;20451;-68
2021/08/06 00:09:59;;;;;;;4.90;2.67;;;15.40;99.90;;;;;;5031643;28;20461;-68
2021/08/06 00:12:26;;;;;;;2.83;1.70;;;15.40;99.90;;;;;;5032337;28;20552;-69
2021/08/06 00:14:54;;;;;;;2.70;1.70;;;15.40;99.90;;;;;;5031871;28;20958;-68
2021/08/06 00:17:21;;;;;;;3.40;1.87;;;15.40;99.90;;;;;;5032273;28;20480;-68
2021/08/06 00:19:48;;;;;;;3.73;1.80;;;15.40;99.90;;;;;;5031450;28;20476;-69
2021/08/06 00:22:15;;;;;;;3.93;1.63;;;15.40;99.90;;;;;;5032594;28;20545;-68
2021/08/06 00:24:42;;;;;;;3.80;1.80;;;15.50;99.90;;;;;;5031850;28;20457;-69
2021/08/06 00:27:09;;;;;;;3.30;1.80;;;15.50;99.90;;;;;;5032138;28;20441;-69
2021/08/06 00:29:36;;;;;;;3.23;1.70;;;15.50;99.90;;;;;;5031188;28;20478;-68
2021/08/06 00:32:05;;;;;;;3.47;1.90;;;15.40;99.90;;;;;;5031751;28;20821;-69
2021/08/06 00:34:32;;;;;;;2.83;1.63;;;15.40;99.90;;;;;;5030782;28;20449;-69
2021/08/06 00:36:59;;;;;;;4.50;1.87;;;15.40;99.90;;;;;;5031806;28;20483;-68
2021/08/06 00:39:25;;;;;;;4.43;1.63;;;15.40;99.90;;;;;;5030450;28;20468;-68
2021/08/06 00:41:52;;;;;;;3.10;2.00;;;15.40;99.90;;;;;;5030499;28;20449;-68
2021/08/06 00:44:19;;;;;;;3.10;2.00;;;15.40;99.90;;;;;;5031165;28;20879;-68
2021/08/06 00:46:46;;;;;;;4.80;1.80;;;15.30;99.90;;;;;;5031320;28;20453;-70
2021/08/06 00:49:15;;;;;;;5.10;1.73;;;15.20;99.90;;;;;;5030457;28;20464;-70
2021/08/06 00:51:41;;;;;;;4.00;1.80;;;15.10;99.90;;;;;;5031505;28;20485;-67
2021/08/06 00:54:08;;;;;;;4.03;1.97;;;15.10;99.90;;;;;;5031627;28;20566;-69
2021/08/06 00:56:35;;;;;;;3.90;1.83;;;15.10;99.90;;;;;;5030913;28;20493;-69
2021/08/06 00:59:02;;;;;;;3.57;1.90;;;15.10;99.90;;;;;;5030332;28;20485;-69
2021/08/06 01:01:32;;;;;;;2.80;1.80;;;15.00;99.90;;;;;;5030818;28;20453;-68
2021/08/06 01:04:06;;;;;;;3.20;2.40;;;15.00;99.90;;;;;;5030950;28;21038;-69
2021/08/06 01:06:42;;;;;;;3.40;1.70;;;15.00;99.90;;;;;;5030741;28;20444;-69
2021/08/06 01:09:19;;;;;;;5.07;1.50;;;15.00;99.90;;;;;;5030370;28;20468;-68
2021/08/06 01:11:50;;;;;;;4.90;1.60;;;15.00;99.90;;;;;;5030617;28;20451;-69
2021/08/06 01:14:21;;;;;;;3.00;1.70;;;15.00;99.90;;;;;;5030795;28;20434;-68
2021/08/06 01:16:50;;;;;;;4.10;1.47;;;15.10;99.90;;;;;;5030869;28;20939;-69
2021/08/06 01:19:25;;;;;;;5.00;1.90;;;15.10;99.90;;;;;;5029833;28;20476;-69
2021/08/06 01:22:03;;;;;;;3.70;1.57;;;15.10;99.90;;;;;;5030173;28;20926;-68
2021/08/06 01:24:35;;;;;;;5.00;1.90;;;15.10;99.90;;;;;;5030054;28;20448;-69
2021/08/06 01:27:04;;;;;;;2.57;1.80;;;15.00;99.90;;;;;;5030676;28;20586;-69
2021/08/06 01:29:31;;;;;;;2.80;1.50;;;15.00;99.90;;;;;;5030008;28;20469;-69
2021/08/06 01:31:58;;;;;;;3.50;1.50;;;15.10;99.90;;;;;;5030712;28;20531;-68
2021/08/06 01:34:25;;;;;;;3.20;2.20;;;15.10;99.90;;;;;;5030057;28;20460;-69
2021/08/06 01:36:51;;;;;;;3.23;1.67;;;15.10;99.90;;;;;;5030171;28;20452;-69
2021/08/06 01:39:20;;;;;;;2.60;1.60;;;15.10;99.90;;;;;;5029733;28;20495;-69
2021/08/06 01:41:55;;;;;;;2.60;1.73;;;15.00;99.90;;;;;;5030274;28;20445;-67
2021/08/06 01:44:31;;;;;;;2.70;1.70;;;15.00;99.90;;;;;;5029772;28;20430;-68
2021/08/06 01:47:06;;;;;;;2.70;2.17;;;15.00;99.90;;;;;;5029801;28;20425;-69
2021/08/06 01:49:41;;;;;;;4.80;1.90;;;15.10;99.90;;;;;;5029152;28;20465;-69
2021/08/06 01:52:12;;;;;;;3.13;2.00;;;15.20;99.90;;;;;;5030345;28;20875;-68
2021/08/06 01:54:40;;;;;;;4.50;1.90;;;15.30;99.90;;;;;;5030065;28;20479;-70
2021/08/06 01:57:09;;;;;;;3.53;1.60;;;15.30;99.90;;;;;;5029909;28;20539;-68
2021/08/06 01:59:38;;;;;;;2.90;1.67;;;15.30;99.90;;;;;;5029130;28;20850;-69
2021/08/06 02:02:05;;;;;;;2.80;1.60;;;15.30;99.90;;;;;;5029736;28;20459;-69
2021/08/06 02:04:33;;;;;;;2.83;2.10;;;15.30;99.90;;;;;;5029899;28;20447;-69
2021/08/06 02:07:00;;;;;;;3.17;1.90;;;15.30;99.90;;;;;;5030058;28;20466;-68
2021/08/06 02:09:27;;;;;;;2.90;1.47;;;15.30;99.90;;;;;;5029041;28;20465;-69
2021/08/06 02:11:54;;;;;;;3.37;1.73;;;15.40;99.90;;;;;;5029969;28;20459;-68
2021/08/06 02:14:22;;;;;;;3.50;1.83;;;15.40;99.90;;;;;;5029347;28;20479;-69
2021/08/06 02:16:52;;;;;;;3.13;2.07;;;15.50;99.90;;;;;;5029968;28;20488;-68
2021/08/06 02:19:22;;;;;;;2.70;1.70;;;15.50;99.90;;;;;;5029112;28;20488;-69
2021/08/06 02:21:53;;;;;;;2.50;1.50;;;15.60;99.90;;;;;;5029869;28;20570;-68
2021/08/06 02:24:21;;;;;;;3.00;1.80;;;15.60;99.90;;;;;;5029568;28;20472;-70
2021/08/06 02:26:49;;;;;;;3.20;1.63;;;15.60;99.90;;;;;;5029707;28;20524;-69
2021/08/06 02:29:21;;;;;;;3.50;1.70;;;15.70;99.90;;;;;;5029138;28;20472;-68
2021/08/06 02:31:51;;;;;;;2.30;1.40;;;15.70;99.90;;;;;;5030244;28;20887;-69
2021/08/06 02:34:18;;;;;;;3.00;2.10;;;15.80;99.90;;;;;;5029810;28;20811;-68
2021/08/06 02:36:47;;;;;;;2.90;2.00;;;15.80;99.90;;;;;;5029754;28;20455;-68
2021/08/06 02:39:18;;;;;;;3.40;2.20;;;15.80;99.90;;;;;;5028700;28;20489;-67
2021/08/06 02:41:45;;;;;;;3.57;1.93;;;15.80;99.90;;;;;;5029770;28;20454;-68
2021/08/06 02:44:12;;;;;;;2.80;1.67;;;15.80;99.90;;;;;;5029701;28;20449;-68
2021/08/06 02:46:39;;;;;;;2.63;1.67;;;15.80;99.90;;;;;;5029223;28;20547;-68
2021/08/06 02:49:08;;;;;;;3.47;2.00;;;15.80;99.90;;;;;;5028657;28;20495;-68
2021/08/06 02:51:35;;;;;;;4.77;2.00;;;15.90;99.90;;;;;;5029420;28;20448;-68
2021/08/06 02:54:02;;;;;;;3.20;1.83;;;15.90;99.90;;;;;;5029238;28;20456;-68
2021/08/06 02:56:29;;;;;;;3.33;1.40;;;15.90;99.90;;;;;;5029515;28;20451;-68
2021/08/06 02:58:56;;;;;;;3.40;2.20;;;16.00;99.90;;;;;;5033261;28;20571;-68
2021/08/06 03:01:23;;;;;;;3.37;2.00;;;16.10;99.90;;;;;;5033400;28;20466;-69
2021/08/06 03:03:50;;;;;;;3.77;2.00;;;16.10;99.90;;;;;;5033307;28;20452;-69
2021/08/06 03:06:18;;;;;;;2.60;1.50;;;16.00;99.90;;;;;;5032968;28;20447;-68
2021/08/06 03:08:45;;;;;;;2.80;2.00;;;16.10;99.90;;;;;;5033064;28;21132;-69
2021/08/06 03:11:12;;;;;;;3.00;2.00;;;16.20;99.90;;;;;;5032534;28;20444;-68
2021/08/06 03:13:39;;;;;;;3.20;1.77;;;16.20;99.90;;;;;;5033473;28;20448;-68
2021/08/06 03:16:06;;;;;;;4.17;2.00;;;16.20;99.90;;;;;;5032787;28;20539;-68
2021/08/06 03:18:33;;;;;;;3.23;1.60;;;16.20;99.90;;;;;;5032843;28;20484;-68
2021/08/06 03:20:59;;;;;;;5.13;2.00;;;16.20;99.90;;;;;;5032087;28;20895;-68
2021/08/06 03:23:28;;;;;;;3.37;1.83;;;16.30;99.90;;;;;;5032890;28;20447;-69
2021/08/06 03:25:55;;;;;;;4.30;1.77;;;16.40;99.90;;;;;;5032385;28;20943;-68
2021/08/06 03:28:22;;;;;;;3.50;1.50;;;16.40;99.90;;;;;;5033123;28;20447;-68
2021/08/06 03:30:49;;;;;;;2.67;1.63;;;16.40;99.90;;;;;;5031887;28;20532;-69
2021/08/06 03:33:16;;;;;;;2.63;1.67;;;16.40;99.90;;;;;;5032919;28;20471;-68
2021/08/06 03:35:43;;;;;;;3.17;1.90;;;16.40;99.90;;;;;;5032552;28;20529;-68
2021/08/06 03:38:17;;;;;;;2.87;2.03;;;16.30;99.90;;;;;;5033106;28;21011;-68
2021/08/06 03:40:46;;;;;;;3.40;2.07;;;16.30;99.90;;;;;;5031968;28;20463;-68
2021/08/06 03:43:13;;;;;;;2.80;1.60;;;16.40;99.90;;;;;;5032766;28;20440;-68
2021/08/06 03:45:40;;;;;;;3.37;2.30;;;16.30;99.90;;;;;;5032146;28;21040;-68
2021/08/06 03:48:08;;;;;;;2.97;2.17;;;16.30;99.90;;;;;;5032788;28;20445;-68
2021/08/06 03:50:37;;;;;;;3.47;2.20;;;16.40;99.90;;;;;;5031649;28;20982;-68
2021/08/06 03:53:05;;;;;;;4.10;1.97;;;16.40;99.90;;;;;;5032387;28;20853;-68
2021/08/06 03:55:32;;;;;;;6.40;2.97;;;16.40;99.90;;;;;;5032051;28;20453;-68
2021/08/06 03:58:01;;;;;;;3.50;2.40;;;16.40;99.90;;;;;;5032474;28;20491;-68
2021/08/06 04:00:29;;;;;;;3.50;2.20;;;16.40;99.90;;;;;;5031371;28;20507;-67
2021/08/06 04:02:56;;;;;;;3.40;2.20;;;16.40;99.90;;;;;;5031818;28;20449;-69
2021/08/06 04:05:23;;;;;;;4.37;2.40;;;16.40;99.90;;;;;;5031929;28;20487;-69
2021/08/06 04:07:50;;;;;;;5.10;2.47;;;16.40;99.90;;;;;;5031819;28;20951;-67
2021/08/06 04:10:19;;;;;;;4.20;2.17;;;16.40;99.90;;;;;;5030856;28;20469;-68
2021/08/06 04:12:48;;;;;;;3.80;2.27;;;16.40;99.90;;;;;;5032028;28;20448;-68
2021/08/06 04:15:17;;;;;;;4.83;2.10;;;16.40;99.90;;;;;;5031428;28;20502;-68
2021/08/06 04:17:44;;;;;;;2.90;2.10;;;16.40;99.90;;;;;;5031980;28;20444;-67
2021/08/06 04:20:12;;;;;;;3.40;2.10;;;16.40;99.90;;;;;;5031197;28;20838;-68
2021/08/06 04:22:39;;;;;;;4.07;2.47;;;16.40;99.90;;;;;;5031822;28;20961;-68
2021/08/06 04:25:08;;;;;;;4.60;2.30;;;16.40;99.90;;;;;;5031459;28;20456;-68
2021/08/06 04:27:35;;;;;;;3.80;1.87;;;16.30;99.90;;;;;;5032038;28;20449;-68
2021/08/06 04:30:01;;;;;;;4.60;2.33;;;16.40;99.90;;;;;;5030753;28;20465;-68
2021/08/06 04:32:30;;;;;;;4.20;2.37;;;16.40;99.90;;;;;;5031649;28;20535;-68
2021/08/06 04:34:56;;;;;;;4.17;2.43;;;16.40;99.90;;;;;;5031537;28;20528;-68
2021/08/06 04:37:23;;;;;;;3.73;2.40;;;16.50;99.90;;;;;;5031608;28;21267;-67
2021/08/06 04:39:50;;;;;;;4.90;2.20;;;16.40;99.90;;;;;;5031085;28;20485;-69
2021/08/06 04:42:17;;;;;;;4.27;2.50;;;16.40;99.90;;;;;;5031811;28;20457;-68
2021/08/06 04:44:44;;;;;;;4.37;2.70;;;16.40;99.90;;;;;;5031554;28;20535;-68
2021/08/06 04:47:11;;;;;;;2.90;2.17;;;16.40;99.90;;;;;;5031850;28;21055;-68
2021/08/06 04:49:39;;;;;;;3.20;2.50;;;16.50;99.90;;;;;;5030667;28;20465;-70
2021/08/06 04:52:07;;;;;;;4.80;3.10;;;16.40;99.90;;;;;;5031377;28;20969;-70
2021/08/06 04:54:34;;;;;;;8.13;3.30;;;16.40;99.90;;;;;;5030888;28;20523;-69
2021/08/06 04:57:00;;;;;;;4.03;2.50;;;16.30;99.90;;;;;;5031491;28;20453;-69
2021/08/06 04:59:27;;;;;;;6.67;3.83;;;16.20;99.90;;;;;;5030387;28;20497;-69
2021/08/06 05:01:54;;;;;;;4.37;3.30;;;16.20;99.90;;;;;;5031176;28;20451;-69
2021/08/06 05:04:21;;;;;;;4.80;3.50;;;16.10;99.90;;;;;;5030692;28;20539;-69
2021/08/06 05:06:49;;;;;;;5.90;3.30;;;16.00;99.90;;;;;;5031100;28;20449;-69
2021/08/06 05:09:16;;;;;;;13.50;4.83;;;15.90;99.90;;;;;;5030014;28;21383;-68
2021/08/06 05:11:43;;;;;;;6.17;3.90;;;15.90;99.90;;;;;;5031060;28;20452;-69
2021/08/06 05:14:09;;;;;;;5.37;3.90;;;15.80;99.90;;;;;;5030887;28;21002;-69
2021/08/06 05:16:36;;;;;;;6.77;3.80;;;15.90;99.90;;;;;;5031011;28;20449;-69
2021/08/06 05:19:03;;;;;;;5.80;4.30;;;15.80;99.90;;;;;;5030100;28;20575;-69
2021/08/06 05:21:30;;;;;;;8.13;4.77;;;15.80;99.90;;;;;;5030663;28;20479;-69
2021/08/06 05:23:58;;;;;;;6.00;4.30;;;15.70;99.90;;;;;;5030580;28;20451;-69
2021/08/06 05:26:25;;;;;;;10.30;4.97;;;15.70;99.90;;;;;;5030316;28;20471;-69
2021/08/06 05:28:52;;;;;;;6.17;4.07;;;15.70;99.90;;;;;;5030583;28;20463;-69
2021/08/06 05:31:19;;;;;;;8.50;4.80;;;15.80;99.90;;;;;;5030147;28;20536;-69
2021/08/06 05:33:47;;;;;;;6.10;4.07;;;15.80;99.90;;;;;;5030681;28;20449;-69
2021/08/06 05:36:14;;;;;;;4.70;3.73;;;15.80;99.90;;;;;;5030202;28;20526;-69
2021/08/06 05:38:40;;;;;;;4.13;3.40;;;15.80;99.90;;;;;;5030076;28;20488;-69
2021/08/06 05:41:09;;;;;;;5.13;3.70;;;15.70;99.90;;;;;;5029607;28;20448;-68
2021/08/06 05:43:35;;;;;;;16.13;6.00;;;15.80;99.90;;;;;;5030429;28;20459;-69
2021/08/06 05:46:02;;;;;;;5.57;4.60;;;15.80;99.90;;;;;;5029892;28;20444;-70
2021/08/06 05:48:29;;;;;;;7.90;4.30;;;15.90;99.90;;;;;;5030259;28;20449;-70
2021/08/06 05:50:56;;;;;;;10.33;5.33;;;15.90;99.90;;;;;;5029418;28;20503;-70
2021/08/06 05:53:23;;;;;;;5.30;3.30;;;16.00;99.90;;;;;;5030365;28;20559;-69
2021/08/06 05:55:50;;;;;;;5.10;3.57;;;16.10;99.90;;;;;;5030009;28;20456;-70
2021/08/06 05:58:18;;;;;;;4.07;3.40;;;16.20;99.90;;;;;;5030196;28;20623;-69
2021/08/06 06:00:45;;;;;;;4.87;3.53;;;16.20;99.90;;;;;;5029161;28;20473;-70
2021/08/06 06:03:12;;;;;;;5.67;3.83;;;16.20;99.90;;;;;;5030120;28;20459;-69
2021/08/06 06:05:39;;;;;;;5.70;4.17;;;16.30;99.90;;;;;;5029402;28;20539;-70
2021/08/06 06:08:06;;;;;;;5.30;3.47;;;16.30;99.90;;;;;;5029959;28;20539;-67
2021/08/06 06:10:33;;;;;;;4.57;2.80;;;16.30;99.90;;;;;;5029190;28;20465;-69
2021/08/06 06:13:00;;;;;;;4.23;2.90;;;16.40;99.90;;;;;;5030126;28;20878;-69
2021/08/06 06:15:28;;;;;;;4.37;3.07;;;16.50;99.90;;;;;;5029539;28;20441;-69
2021/08/06 06:17:55;;;;;;;5.20;3.77;;;16.70;99.90;;;;;;5029701;28;21035;-69
2021/08/06 06:20:23;;;;;;;3.67;2.93;;;16.80;99.90;;;;;;5028728;28;20480;-69
2021/08/06 06:22:50;;;;;;;5.17;2.87;;;17.00;99.90;;;;;;5029626;28;20535;-69
2021/08/06 06:25:17;;;;;;;5.00;3.87;;;17.10;99.90;;;;;;5029394;28;20548;-69
2021/08/06 06:27:55;;;;;;;4.20;3.40;;;17.40;99.90;;;;;;5029795;28;20529;-70
2021/08/06 06:30:24;;;;;;;4.63;3.07;;;17.40;99.90;;;;;;5028935;28;20460;-69
2021/08/06 06:32:53;;;;;;;3.87;3.03;;;17.50;99.90;;;;;;5028994;28;20452;-69
2021/08/06 06:35:20;;;;;;;5.70;3.27;;;17.40;99.90;;;;;;5029414;28;20438;-70
2021/08/06 06:37:47;;;;;;;5.03;2.73;;;17.40;99.90;;;;;;5029775;28;20444;-70
2021/08/06 06:40:15;;;;;;;4.80;3.30;;;17.40;99.90;;;;;;5028771;28;20587;-68
2021/08/06 06:42:43;;;;;;;4.20;2.97;;;17.40;99.90;;;;;;5028440;28;20824;-69
2021/08/06 06:45:11;;;;;;;7.03;3.80;;;17.40;99.90;;;;;;5029560;28;20456;-69
2021/08/06 06:47:40;;;;;;;5.30;2.80;;;17.40;99.90;;;;;;5030038;28;20445;-69
2021/08/06 06:50:11;;;;;;;3.43;2.47;;;17.50;99.90;;;;;;5029489;28;20548;-70
2021/08/06 06:52:38;;;;;;;3.63;2.67;;;17.70;99.90;;;;;;5030560;28;20900;-70
2021/08/06 06:55:07;;;;;;;5.37;3.30;;;17.70;99.90;;;;;;5029695;28;20536;-69
2021/08/06 06:57:41;;;;;;;3.77;2.90;;;17.70;99.90;;;;;;5030044;28;21043;-67
2021/08/06 07:00:09;;;;;;;3.80;2.90;;;17.60;99.90;;;;;;5028715;28;20487;-68
2021/08/06 07:02:36;;;;;;;4.07;2.77;;;17.50;99.90;;;;;;5029416;28;21046;-69
2021/08/06 07:05:04;;;;;;;3.57;2.80;;;17.30;99.90;;;;;;5029309;28;20440;-68
2021/08/06 07:07:32;;;;;;;3.23;2.77;;;17.30;99.90;;;;;;5029726;28;20537;-69
2021/08/06 07:09:59;;;;;;;3.60;3.13;;;17.40;99.90;;;;;;5028300;28;20557;-68
2021/08/06 07:12:26;;;;;;;4.40;3.17;;;17.60;99.90;;;;;;5029395;28;20448;-68
2021/08/06 07:14:53;;;;;;;5.80;2.90;;;17.90;99.90;;;;;;5028847;28;20455;-69
2021/08/06 07:17:20;;;;;;;5.47;3.30;;;18.30;99.90;;;;;;5029773;28;20884;-69
2021/08/06 07:19:47;;;;;;;3.27;2.13;;;18.70;99.90;;;;;;5028586;28;20477;-69
2021/08/06 07:22:14;;;;;;;3.67;2.57;;;18.90;99.90;;;;;;5028935;28;20957;-68
2021/08/06 07:24:42;;;;;;;4.07;2.37;;;19.00;99.90;;;;;;5028539;28;20466;-68
2021/08/06 07:27:09;;;;;;;4.70;2.20;;;19.00;99.90;;;;;;5029376;28;20898;-70
2021/08/06 07:29:35;;;;;;;4.50;2.00;;;18.90;99.90;;;;;;5028504;28;20912;-69
2021/08/06 07:32:02;;;;;;;4.30;2.10;;;18.80;99.90;;;;;;5029122;28;20536;-69
2021/08/06 07:34:29;;;;;;;3.50;2.17;;;18.80;99.90;;;;;;5028677;28;20455;-69
2021/08/06 07:36:56;;;;;;;3.87;2.00;;;18.70;99.90;;;;;;5028890;28;20539;-69
2021/08/06 07:39:23;;;;;;;3.43;2.07;;;18.70;99.90;;;;;;5027967;28;21019;-70
2021/08/06 07:41:51;;;;;;;4.37;2.00;;;18.60;99.90;;;;;;5028986;28;20453;-69
2021/08/06 07:44:18;;;;;;;4.00;2.60;;;18.50;99.90;;;;;;5030214;28;20455;-69
2021/08/06 07:46:45;;;;;;;6.70;2.23;;;18.50;99.90;;;;;;5032650;28;20552;-68
2021/08/06 07:49:12;;;;;;;4.00;2.07;;;18.50;99.90;;;;;;5031798;28;20487;-69
2021/08/06 07:51:39;;;;;;;3.60;2.40;;;18.70;99.90;;;;;;5032801;28;20510;-70
2021/08/06 07:54:06;;;;;;;4.43;2.07;;;18.80;99.90;;;;;;5032828;28;20925;-68
2021/08/06 07:56:33;;;;;;;3.40;2.13;;;18.70;99.90;;;;;;5032273;28;21027;-68
2021/08/06 07:59:03;;;;;;;3.50;2.50;;;18.40;99.90;;;;;;5031594;28;20555;-68
2021/08/06 08:01:30;;;;;;;4.35;2.60;;;18.00;99.90;;;;;;5032159;28;20437;-67
2021/08/06 08:03:57;;;;;;;10.73;3.03;;;17.60;99.90;;;;;;5032219;28;20202;-68
2021/08/06 08:06:24;;;;;;;6.50;3.10;;;17.20;99.90;;;;;;5032030;28;20445;-68
2021/08/06 08:08:51;;;;;;;4.07;2.63;;;16.90;99.90;;;;;;5032107;28;21009;-68
2021/08/06 08:11:17;;;;;;;4.30;3.03;;;16.80;99.90;;;;;;5031591;28;20536;-68
2021/08/06 08:13:44;;;;;;;4.67;3.17;;;16.90;99.90;;;;;;5032246;28;20449;-68
2021/08/06 08:16:14;;;;;;;5.20;3.00;;;17.00;99.90;;;;;;5031703;28;21232;-68
2021/08/06 08:18:41;;;;;;;4.00;2.93;;;17.10;99.90;;;;;;5032025;28;20488;-68
2021/08/06 08:21:08;;;;;;;4.00;3.10;;;17.30;99.90;;;;;;5031302;28;20563;-69
2021/08/06 08:23:35;;;;;;;7.37;2.83;;;17.70;99.90;;;;;;5032064;28;20536;-69
2021/08/06 08:26:01;;;;;;;3.90;2.67;;;18.00;99.90;;;;;;5031421;28;20917;-69
2021/08/06 08:28:28;;;;;;;3.20;2.10;;;18.40;99.90;;;;;;5031744;28;20455;-69
2021/08/06 08:30:55;;;;;;;3.10;2.23;;;18.50;99.90;;;;;;5030955;28;20748;-69
2021/08/06 08:33:24;;;;;;;3.87;2.20;;;18.70;99.90;;;;;;5031700;28;20457;-68
2021/08/06 08:35:51;;;;;;;3.60;1.90;;;18.70;99.90;;;;;;5031346;28;20449;-69
2021/08/06 08:38:18;;;;;;;3.20;1.90;;;19.00;99.90;;;;;;5031629;28;20460;-69
2021/08/06 08:40:45;;;;;;;3.30;2.00;;;19.20;99.90;;;;;;5030599;28;20488;-69
2021/08/06 08:43:12;;;;;;;3.80;1.50;;;19.60;99.90;;;;;;5031447;28;20455;-69
2021/08/06 08:45:41;;;;;;;5.13;1.77;;;19.80;99.90;;;;;;5030852;28;20536;-69
2021/08/06 08:48:08;;;;;;;4.37;2.00;;;20.10;99.90;;;;;;5031607;28;20830;-68
2021/08/06 08:50:38;;;;;;;3.50;1.73;;;20.20;99.90;;;;;;5030709;28;20469;-69
2021/08/06 08:53:05;;;;;;;3.83;1.87;;;20.30;99.90;;;;;;5031387;28;20455;-68
2021/08/06 08:55:33;;;;;;;2.93;1.53;;;20.40;99.90;;;;;;5030500;28;20451;-68
2021/08/06 08:58:00;;;;;;;5.20;1.27;;;20.40;99.90;;;;;;5031233;28;20453;-68
2021/08/06 09:00:28;;;;;;;3.13;1.33;;;20.30;99.90;;;;;;5030301;28;20986;-68
2021/08/06 09:02:54;;;;;;;3.27;1.30;;;20.00;99.90;;;;;;5031917;28;20882;-68
2021/08/06 09:05:25;;;;;;;2.70;1.30;;;19.90;99.90;;;;;;5031081;28;20449;-69
2021/08/06 09:07:54;;;;;;;3.70;1.40;;;19.80;99.90;;;;;;5031530;28;20438;-69
2021/08/06 09:10:25;;;;;;;2.40;1.10;;;19.70;99.90;;;;;;5030559;28;20471;-69
2021/08/06 09:12:55;;;;;;;2.87;1.10;;;19.90;99.90;;;;;;5031072;28;20433;-68
2021/08/06 09:15:43;;;;;;;4.37;1.50;;;20.10;99.90;;;;;;5030765;28;20437;-69
2021/08/06 09:18:33;;;;;;;3.37;1.50;;;20.30;99.90;;;;;;5030900;28;20448;-70
2021/08/06 09:21:02;;;;;;;4.43;1.47;;;20.70;99.90;;;;;;5029867;28;20479;-70
2021/08/06 09:23:45;;;;;;;2.30;1.30;;;21.40;99.90;;;;;;5030661;28;20492;-69
2021/08/06 09:26:41;;;;;;;3.13;1.13;;;22.10;99.90;;;;;;5030157;28;20559;-70
2021/08/06 09:29:11;;;;;;;4.00;1.17;;;22.00;99.90;;;;;;4995064;28;20491;-69
2021/08/06 09:31:41;;;;;;;2.57;1.00;;;22.10;99.90;;;;;;5030534;28;20499;-70
2021/08/06 09:34:19;;;;;;;3.13;1.20;;;21.80;99.90;;;;;;5030865;28;20437;-69
2021/08/06 09:36:54;;;;;;;2.40;1.03;;;21.90;99.90;;;;;;5030815;28;20449;-69
2021/08/06 09:39:24;;;;;;;4.30;1.10;;;21.90;99.90;;;;;;5029466;28;20469;-69
2021/08/06 09:41:51;;;;;;;2.30;1.00;;;22.10;99.90;;;;;;5030139;28;20449;-69
2021/08/06 09:44:21;;;;;;;2.40;1.10;;;21.90;99.90;;;;;;5030274;28;20468;-69
2021/08/06 09:46:49;;;;;;;2.47;1.13;;;21.50;99.90;;;;;;5030381;28;20448;-69
2021/08/06 09:49:17;;;;;;;2.30;0.90;;;21.50;99.90;;;;;;5029421;28;20561;-69
2021/08/06 09:51:46;;;;;;;2.37;1.00;;;21.60;99.90;;;;;;5030028;28;20528;-69
2021/08/06 09:54:22;;;;;;;2.33;1.00;;;22.40;99.90;;;;;;5029934;28;20906;-69
2021/08/06 09:57:01;;;;;;;2.40;0.90;;;22.70;99.90;;;;;;5030135;28;20435;-69
2021/08/06 09:59:29;;;;;;;2.20;0.97;;;22.50;99.90;;;;;;5028745;28;20471;-69
2021/08/06 10:02:17;;;;;;;3.10;0.97;;;22.00;99.90;;;;;;5029588;28;20492;-69
2021/08/06 10:04:45;;;;;;;2.60;1.00;;;21.90;99.90;;;;;;5029308;28;20520;-69
2021/08/06 10:07:12;;;;;;;2.43;1.00;;;21.50;99.90;;;;;;5028769;28;20935;-69
2021/08/06 10:09:40;;;;;;;2.40;1.07;;;21.20;99.90;;;;;;5028924;28;20552;-69
2021/08/06 10:12:08;;;;;;;2.87;1.20;;;21.50;99.90;;;;;;5029787;28;20451;-70
2021/08/06 10:14:36;;;;;;;2.23;1.10;;;22.20;99.90;;;;;;5029269;28;20464;-69
2021/08/06 10:17:03;;;;;;;3.10;1.17;;;22.70;99.90;;;;;;5029672;28;21096;-69
2021/08/06 10:19:30;;;;;;;2.60;1.00;;;22.70;99.90;;;;;;5028635;28;20465;-69
2021/08/06 10:21:59;;;;;;;3.03;1.00;;;22.70;99.90;;;;;;5029684;28;20483;-69
2021/08/06 10:24:25;;;;;;;2.60;1.20;;;22.30;99.90;;;;;;5029002;28;20445;-69
2021/08/06 10:26:54;;;;;;;4.17;1.33;;;22.00;99.90;;;;;;5029338;28;20508;-69
2021/08/06 10:29:23;;;;;;;2.67;1.23;;;22.40;99.90;;;;;;5028448;28;20551;-69
2021/08/06 10:32:12;;;;;;;2.13;0.97;;;23.20;99.90;;;;;;5029132;28;20437;-70
2021/08/06 10:35:09;;;;;;;2.57;1.27;;;23.60;99.90;;;;;;5029302;28;20445;-69
2021/08/06 10:38:04;;;;;;;2.30;1.00;;;23.00;99.90;;;;;;5029887;28;20437;-70
2021/08/06 10:41:08;;;;;;;3.17;1.00;;;22.60;99.90;;;;;;4993326;28;20492;-68
2021/08/06 10:44:03;;;;;;;2.70;1.10;;;22.20;99.90;;;;;;5029705;28;20832;-68
2021/08/06 10:47:02;;;;;;;3.70;1.50;;;22.00;99.90;;;;;;5021437;28;20467;-69
2021/08/06 10:49:30;;;;;;;2.93;1.57;;;22.10;99.90;;;;;;5028903;28;20501;-68
2021/08/06 10:52:15;;;;;;;2.60;0.93;;;22.40;99.90;;;;;;5029370;28;20468;-69
2021/08/06 10:54:42;;;;;;;3.33;1.10;;;22.70;99.90;;;;;;5028846;28;20453;-69
2021/08/06 10:57:21;;;;;;;2.13;0.90;;;22.80;99.90;;;;;;5029507;28;20449;-69
2021/08/06 10:59:50;;;;;;;2.87;1.10;;;22.20;99.90;;;;;;5028621;28;20464;-68
2021/08/06 11:02:51;;;;;;;2.27;0.97;;;21.90;99.90;;;;;;5029520;28;20443;-69
2021/08/06 11:05:44;;;;;;;3.37;1.17;;;22.10;99.90;;;;;;4967597;28;20424;-68
2021/08/06 11:08:47;;;;;;;2.33;1.03;;;22.20;99.90;;;;;;4967929;28;21036;-69
2021/08/06 11:11:51;;;;;;;2.63;1.53;;;22.20;99.90;;;;;;5020529;28;20534;-68
2021/08/06 11:14:34;;;;;;;3.00;1.20;;;22.30;99.90;;;;;;5019899;28;20471;-68
2021/08/06 11:17:06;;;;;;;2.70;1.10;;;22.20;99.90;;;;;;5028457;28;20526;-69
2021/08/06 11:19:36;;;;;;;3.53;1.20;;;22.10;99.90;;;;;;5032410;28;20457;-68
2021/08/06 11:22:06;;;;;;;3.50;1.40;;;21.70;99.90;;;;;;5032841;28;20469;-68
2021/08/06 11:24:39;;;;;;;2.80;1.10;;;21.50;99.90;;;;;;5032959;28;21072;-68
2021/08/06 11:27:06;;;;;;;3.00;1.50;;;21.20;99.90;;;;;;5033544;28;20430;-69
2021/08/06 11:29:35;;;;;;;3.33;1.20;;;21.40;99.90;;;;;;5031943;28;20464;-68
2021/08/06 11:32:06;;;;;;;4.40;1.30;;;22.10;99.90;;;;;;5032727;28;20445;-69
2021/08/06 11:34:49;;;;;;;3.73;1.30;;;22.50;99.90;;;;;;5032428;28;20452;-69
2021/08/06 11:37:16;;;;;;;2.93;1.47;;;22.90;99.90;;;;;;5032801;28;20456;-69
2021/08/06 11:40:07;;;;;;;2.73;1.10;;;23.30;99.90;;;;;;5031652;28;20479;-69
2021/08/06 11:42:34;;;;;;;3.47;1.33;;;24.00;99.90;;;;;;5032711;28;20532;-69
2021/08/06 11:45:01;;;;;;;2.70;1.47;;;24.90;99.90;;;;;;5032030;28;20453;-69
2021/08/06 11:47:40;;;;;;;3.13;1.03;;;25.50;99.90;;;;;;5032647;28;20444;-69
2021/08/06 11:50:09;;;;;;;3.13;0.90;;;25.90;99.90;;;;;;5031502;28;20839;-69
2021/08/06 11:52:39;;;;;;;2.90;1.30;;;25.40;99.90;;;;;;5032532;28;20451;-69
2021/08/06 11:55:07;;;;;;;2.07;1.00;;;24.90;99.90;;;;;;5032100;28;20448;-69
2021/08/06 11:57:44;;;;;;;3.23;1.10;;;24.20;99.90;;;;;;5032455;28;20523;-69
2021/08/06 12:00:20;;;;;;;3.30;1.30;;;23.60;99.90;;;;;;5031328;28;20539;-70
2021/08/06 12:02:59;;;;;;;2.10;0.80;;;23.20;99.90;;;;;;5032355;28;20531;-68
2021/08/06 12:05:26;;;;;;;2.67;0.97;;;23.00;99.90;;;;;;5031869;28;20448;-69
2021/08/06 12:07:53;;;;;;;3.13;1.00;;;22.90;99.90;;;;;;5031828;28;20635;-69
2021/08/06 12:10:25;;;;;;;2.30;1.10;;;23.10;99.90;;;;;;5031263;28;20891;-70
2021/08/06 12:12:52;;;;;;;3.13;1.00;;;23.30;99.90;;;;;;5032261;28;20766;-69
2021/08/06 12:15:21;;;;;;;2.57;0.93;;;23.40;99.90;;;;;;5031760;28;20445;-69
2021/08/06 12:17:49;;;;;;;2.50;0.80;;;23.80;99.90;;;;;;5032124;28;20495;-69
2021/08/06 12:20:34;;;;;;;2.97;1.00;;;23.80;99.90;;;;;;5030886;28;20492;-68
2021/08/06 12:23:02;;;;;;;3.03;1.07;;;23.20;99.90;;;;;;5030745;28;20547;-69
2021/08/06 12:25:31;;;;;;;3.20;1.27;;;22.60;99.90;;;;;;5031503;28;20474;-69
2021/08/06 12:27:58;;;;;;;4.33;1.17;;;22.30;99.90;;;;;;5031734;28;20483;-68
2021/08/06 12:30:26;;;;;;;2.63;0.90;;;22.20;99.90;;;;;;5030082;28;20990;-69
2021/08/06 12:32:55;;;;;;;3.50;1.10;;;22.10;99.90;;;;;;5031763;28;20445;-69
2021/08/06 12:35:23;;;;;;;3.60;1.50;;;22.40;99.90;;;;;;5031536;28;20467;-68
2021/08/06 12:37:51;;;;;;;3.33;1.30;;;23.40;99.90;;;;;;5031803;28;20839;-69
2021/08/06 12:40:18;;;;;;;2.97;1.33;;;24.30;99.90;;;;;;5031405;28;20460;-68
2021/08/06 12:42:45;;;;;;;2.03;0.70;;;24.40;99.90;;;;;;5029441;28;20575;-68
2021/08/06 12:45:19;;;;;;;2.83;1.20;;;24.40;99.90;;;;;;5031291;28;20451;-69
2021/08/06 12:47:47;;;;;;;7.70;1.63;;;24.70;99.90;;;;;;5031411;28;20439;-69
2021/08/06 12:50:17;;;;;;;2.90;1.00;;;25.50;99.90;;;;;;5030484;28;20559;-69
2021/08/06 12:52:45;;;;;;;2.17;0.80;;;26.10;99.90;;;;;;5031340;28;20457;-68
2021/08/06 12:55:14;;;;;;;2.60;1.03;;;26.90;99.10;;;;;;5030852;28;20449;-69
2021/08/06 12:57:47;;;;;;;3.70;1.10;;;27.20;97.90;;;;;;5031444;28;20457;-69